Time;durP1;ratioP1;P1;durP2;ratioP2;P2;SDS_P1;SDS_P2;PMS_P1;PMS_P2;Temp;Humidity;BMP_temperature;BMP_pressure;BME280_temperature;BME280_humidity;BME280_pressure;Samples;Min_cycle;Max_cycle;Signal;HPM_P1;HPM_P2
2020/12/12 00:01:38;;;;;;;18.40;13.88;;;;;;;;;;5035097;28;20229;-64
2020/12/12 00:04:04;;;;;;;20.08;14.30;;;;;;;;;;5035552;28;20337;-64
2020/12/12 00:06:31;;;;;;;17.02;12.63;;;;;;;;;;5035829;28;20256;-65
2020/12/12 00:08:58;;;;;;;17.90;13.25;;;;;;;;;;5035006;28;20226;-64
2020/12/12 00:11:25;;;;;;;23.15;15.48;;;;;;;;;;5034821;28;20226;-63
2020/12/12 00:13:52;;;;;;;20.55;13.90;;;;;;;;;;5033975;28;20259;-64
2020/12/12 00:16:19;;;;;;;22.50;15.80;;;;;;;;;;5033738;28;20206;-64
2020/12/12 00:18:46;;;;;;;19.08;13.50;;;;;;;;;;5034222;28;20225;-64
2020/12/12 00:21:13;;;;;;;18.30;13.00;;;;;;;;;;5033291;28;20721;-65
2020/12/12 00:23:39;;;;;;;20.98;13.48;;;;;;;;;;5036936;28;20392;-65
2020/12/12 00:26:07;;;;;;;18.48;13.07;;;;;;;;;;5037310;28;20203;-65
2020/12/12 00:28:34;;;;;;;20.13;14.43;;;;;;;;;;5037233;28;20218;-64
2020/12/12 00:31:01;;;;;;;19.17;13.65;;;;;;;;;;5037279;28;20276;-65
2020/12/12 00:33:28;;;;;;;19.65;13.90;;;;;;;;;;5037498;28;20199;-65
2020/12/12 00:35:55;;;;;;;21.02;14.85;;;;;;;;;;5040189;28;20198;-63
2020/12/12 00:38:22;;;;;;;17.75;14.05;;;;;;;;;;5041458;28;20616;-64
2020/12/12 00:40:56;;;;;;;20.33;14.32;;;;;;;;;;5041160;28;20252;-64
2020/12/12 00:43:23;;;;;;;24.85;15.65;;;;;;;;;;5041686;28;20524;-64
2020/12/12 00:45:50;;;;;;;19.23;13.95;;;;;;;;;;5039766;28;20205;-65
2020/12/12 00:48:17;;;;;;;18.23;13.57;;;;;;;;;;5042340;28;20222;-64
2020/12/12 00:50:48;;;;;;;18.00;12.98;;;;;;;;;;5044193;28;20222;-65
2020/12/12 00:53:14;;;;;;;24.45;14.98;;;;;;;;;;5043283;28;20210;-64
2020/12/12 00:55:41;;;;;;;19.95;14.50;;;;;;;;;;5041753;28;20202;-64
2020/12/12 00:58:08;;;;;;;19.17;13.10;;;;;;;;;;5040538;28;20248;-64
2020/12/12 01:00:35;;;;;;;21.77;14.18;;;;;;;;;;5038916;28;20272;-63
2020/12/12 01:03:02;;;;;;;18.10;12.35;;;;;;;;;;5039124;28;20674;-63
2020/12/12 01:05:31;;;;;;;23.35;15.23;;;;;;;;;;5038836;28;20252;-64
2020/12/12 01:07:58;;;;;;;20.60;13.23;;;;;;;;;;5038037;28;20755;-64
2020/12/12 01:10:25;;;;;;;23.38;14.15;;;;;;;;;;5038084;28;20271;-64
2020/12/12 01:12:51;;;;;;;17.98;13.10;;;;;;;;;;5037687;28;20198;-63
2020/12/12 01:15:18;;;;;;;19.10;14.10;;;;;;;;;;5037943;28;20256;-65
2020/12/12 01:17:45;;;;;;;17.00;13.23;;;;;;;;;;5037195;28;20260;-64
2020/12/12 01:20:13;;;;;;;20.05;14.60;;;;;;;;;;5037033;28;20813;-64
2020/12/12 01:22:40;;;;;;;20.35;13.60;;;;;;;;;;5037163;28;20252;-63
2020/12/12 01:25:07;;;;;;;18.98;13.65;;;;;;;;;;5037063;28;20260;-66
2020/12/12 01:27:33;;;;;;;21.27;15.43;;;;;;;;;;5036994;28;20198;-65
2020/12/12 01:30:00;;;;;;;21.60;14.85;;;;;;;;;;5036834;28;20276;-65
2020/12/12 01:32:27;;;;;;;20.33;14.52;;;;;;;;;;5037438;28;20214;-64
2020/12/12 01:34:55;;;;;;;23.85;16.70;;;;;;;;;;5035772;28;20674;-64
2020/12/12 01:37:22;;;;;;;22.80;16.08;;;;;;;;;;5037283;28;20199;-64
2020/12/12 01:39:49;;;;;;;24.75;16.02;;;;;;;;;;5038350;28;20218;-64
2020/12/12 01:42:16;;;;;;;24.15;16.98;;;;;;;;;;5038485;28;20259;-64
2020/12/12 01:44:42;;;;;;;24.50;16.10;;;;;;;;;;5038675;28;20325;-64
2020/12/12 01:47:09;;;;;;;23.45;16.55;;;;;;;;;;5037734;28;20249;-65
2020/12/12 01:49:36;;;;;;;24.13;16.63;;;;;;;;;;5036921;28;20701;-64
2020/12/12 01:52:04;;;;;;;26.52;16.27;;;;;;;;;;5037307;28;20210;-64
2020/12/12 01:54:32;;;;;;;26.67;16.63;;;;;;;;;;5038691;28;20202;-64
2020/12/12 01:57:03;;;;;;;25.05;16.40;;;;;;;;;;5045537;28;20202;-65
2020/12/12 01:59:29;;;;;;;24.05;17.52;;;;;;;;;;5043824;28;20213;-64
2020/12/12 02:01:57;;;;;;;24.05;18.17;;;;;;;;;;5043497;28;20206;-64
2020/12/12 02:04:25;;;;;;;28.38;18.20;;;;;;;;;;5039368;28;20551;-63
2020/12/12 02:06:52;;;;;;;27.08;19.40;;;;;;;;;;5036811;28;20241;-64
2020/12/12 02:09:19;;;;;;;25.90;18.13;;;;;;;;;;5036841;28;20222;-65
2020/12/12 02:11:47;;;;;;;25.02;18.33;;;;;;;;;;5036635;28;20222;-64
2020/12/12 02:14:14;;;;;;;27.40;19.10;;;;;;;;;;5036924;28;20249;-64
2020/12/12 02:16:52;;;;;;;29.00;19.63;;;;;;;;;;5036432;28;20221;-65
2020/12/12 02:19:18;;;;;;;30.20;19.40;;;;;;;;;;5036121;28;20214;-64
2020/12/12 02:21:49;;;;;;;26.45;18.10;;;;;;;;;;5035777;28;20288;-64
2020/12/12 02:24:16;;;;;;;30.10;19.00;;;;;;;;;;5037409;28;20252;-64
2020/12/12 02:26:43;;;;;;;29.83;18.65;;;;;;;;;;5036901;28;20252;-64
2020/12/12 02:29:11;;;;;;;29.10;19.55;;;;;;;;;;5036463;28;20219;-65
2020/12/12 02:31:38;;;;;;;28.63;18.90;;;;;;;;;;5035812;28;20226;-65
2020/12/12 02:34:04;;;;;;;31.40;19.38;;;;;;;;;;5035888;28;20337;-64
2020/12/12 02:36:34;;;;;;;30.00;19.75;;;;;;;;;;5035701;28;20612;-65
2020/12/12 02:39:02;;;;;;;32.38;19.73;;;;;;;;;;5035412;28;20226;-65
2020/12/12 02:41:29;;;;;;;33.55;18.75;;;;;;;;;;5035128;28;20641;-66
2020/12/12 02:43:56;;;;;;;28.73;18.05;;;;;;;;;;5035260;28;20204;-64
2020/12/12 02:46:22;;;;;;;28.25;19.55;;;;;;;;;;5034146;28;20301;-64
2020/12/12 02:48:50;;;;;;;28.58;19.35;;;;;;;;;;5035446;28;20222;-64
2020/12/12 02:51:17;;;;;;;30.45;19.05;;;;;;;;;;5035020;28;20226;-65
2020/12/12 02:53:44;;;;;;;25.92;18.08;;;;;;;;;;5034830;28;20737;-65
2020/12/12 02:56:13;;;;;;;26.63;18.80;;;;;;;;;;5034687;28;20210;-65
2020/12/12 02:58:40;;;;;;;32.78;19.13;;;;;;;;;;5036303;28;20221;-64
2020/12/12 03:01:07;;;;;;;30.95;19.50;;;;;;;;;;5036067;28;20234;-66
2020/12/12 03:03:34;;;;;;;27.40;19.52;;;;;;;;;;5034628;28;20203;-64
2020/12/12 03:06:01;;;;;;;28.25;18.73;;;;;;;;;;5034722;28;20549;-65
2020/12/12 03:08:27;;;;;;;30.77;19.15;;;;;;;;;;5034559;28;20300;-65
2020/12/12 03:10:54;;;;;;;27.63;18.75;;;;;;;;;;5035255;28;20245;-64
2020/12/12 03:13:22;;;;;;;27.60;18.75;;;;;;;;;;5041872;28;20206;-65
2020/12/12 03:15:49;;;;;;;28.80;18.75;;;;;;;;;;5042760;28;20209;-67
2020/12/12 03:18:15;;;;;;;22.27;17.67;;;;;;;;;;5043583;28;20674;-66
2020/12/12 03:20:42;;;;;;;28.88;18.30;;;;;;;;;;5043216;28;20234;-64
2020/12/12 03:23:11;;;;;;;29.13;19.33;;;;;;;;;;5045798;28;20199;-65
2020/12/12 03:25:38;;;;;;;30.60;19.60;;;;;;;;;;5047567;28;20233;-65
2020/12/12 03:28:05;;;;;;;26.02;17.23;;;;;;;;;;5047664;28;20233;-64
2020/12/12 03:30:32;;;;;;;28.80;19.17;;;;;;;;;;5045976;28;20218;-65
2020/12/12 03:32:59;;;;;;;26.25;18.33;;;;;;;;;;5037894;28;20210;-65
2020/12/12 03:35:27;;;;;;;27.95;19.20;;;;;;;;;;5035469;28;20202;-65
2020/12/12 03:37:54;;;;;;;25.83;19.30;;;;;;;;;;5035478;28;20203;-64
2020/12/12 03:40:23;;;;;;;25.83;19.13;;;;;;;;;;5034778;28;20768;-64
2020/12/12 03:42:50;;;;;;;25.73;19.50;;;;;;;;;;5034814;28;20206;-64
2020/12/12 03:45:17;;;;;;;30.60;20.77;;;;;;;;;;5035546;28;20206;-65
2020/12/12 03:47:44;;;;;;;26.00;18.00;;;;;;;;;;5038118;28;20206;-65
2020/12/12 03:50:11;;;;;;;29.23;21.30;;;;;;;;;;5038352;28;20230;-66
2020/12/12 03:52:38;;;;;;;27.70;20.63;;;;;;;;;;5034763;28;20206;-65
2020/12/12 03:55:05;;;;;;;29.83;19.95;;;;;;;;;;5034091;28;20612;-65
2020/12/12 03:57:32;;;;;;;29.00;19.00;;;;;;;;;;5034181;28;20198;-65
2020/12/12 03:59:58;;;;;;;29.20;19.00;;;;;;;;;;5034795;28;20272;-65
2020/12/12 04:02:26;;;;;;;29.83;19.75;;;;;;;;;;5039504;28;20206;-65
2020/12/12 04:07:27;;;;;;;31.88;20.02;;;;;;;;;;5114841;27;20540;-64
2020/12/12 04:09:53;;;;;;;30.02;20.60;;;;;;;;;;5113754;28;20220;-65
2020/12/12 04:12:20;;;;;;;27.17;19.65;;;;;;;;;;5114660;28;20211;-65
2020/12/12 04:14:47;;;;;;;28.50;20.30;;;;;;;;;;5114114;28;20207;-66
2020/12/12 04:17:14;;;;;;;29.60;19.23;;;;;;;;;;5112824;28;20199;-65
2020/12/12 04:19:40;;;;;;;31.38;21.10;;;;;;;;;;5114303;28;20204;-64
2020/12/12 04:22:07;;;;;;;29.40;19.77;;;;;;;;;;5111691;28;20200;-64
2020/12/12 04:24:35;;;;;;;28.25;19.70;;;;;;;;;;5111618;28;20199;-65
2020/12/12 04:27:02;;;;;;;30.60;21.33;;;;;;;;;;5111677;28;20212;-65
2020/12/12 04:29:28;;;;;;;28.33;19.77;;;;;;;;;;5111427;28;20203;-65
2020/12/12 04:31:55;;;;;;;30.98;21.48;;;;;;;;;;5111599;28;20200;-65
2020/12/12 04:34:22;;;;;;;28.17;20.00;;;;;;;;;;5111390;28;20207;-64
2020/12/12 04:36:49;;;;;;;30.63;20.45;;;;;;;;;;5111510;28;20204;-65
2020/12/12 04:39:15;;;;;;;31.50;21.25;;;;;;;;;;5112359;28;20208;-64
2020/12/12 04:41:43;;;;;;;30.15;20.88;;;;;;;;;;5113268;28;20215;-64
2020/12/12 04:44:10;;;;;;;29.55;19.67;;;;;;;;;;5117764;28;20253;-65
2020/12/12 04:46:38;;;;;;;33.35;20.92;;;;;;;;;;5114167;28;20261;-65
2020/12/12 04:49:05;;;;;;;33.30;21.50;;;;;;;;;;5112970;28;20228;-64
2020/12/12 04:51:32;;;;;;;35.33;21.33;;;;;;;;;;5113369;28;20725;-65
2020/12/12 04:53:59;;;;;;;32.42;21.73;;;;;;;;;;5112458;28;20207;-65
2020/12/12 04:56:26;;;;;;;31.45;20.40;;;;;;;;;;5113220;28;20196;-65
2020/12/12 04:58:54;;;;;;;31.05;21.35;;;;;;;;;;5113181;28;20568;-64
2020/12/12 05:01:21;;;;;;;33.72;21.30;;;;;;;;;;5111391;28;20220;-63
2020/12/12 05:03:48;;;;;;;29.60;19.42;;;;;;;;;;5111021;28;20257;-64
2020/12/12 05:06:15;;;;;;;33.70;21.75;;;;;;;;;;5110943;28;20273;-64
2020/12/12 05:08:42;;;;;;;29.33;20.42;;;;;;;;;;5110700;28;20204;-64
2020/12/12 05:11:08;;;;;;;34.15;20.40;;;;;;;;;;5110751;28;20367;-64
2020/12/12 05:13:35;;;;;;;29.98;20.60;;;;;;;;;;5110510;28;20200;-64
2020/12/12 05:16:03;;;;;;;29.85;22.13;;;;;;;;;;5110901;28;20196;-64
2020/12/12 05:18:30;;;;;;;29.58;21.25;;;;;;;;;;5098378;28;20222;-64
2020/12/12 05:20:56;;;;;;;30.52;21.08;;;;;;;;;;5096597;28;20221;-63
2020/12/12 05:23:24;;;;;;;32.90;20.17;;;;;;;;;;5096905;28;20644;-64
2020/12/12 05:25:52;;;;;;;31.45;20.63;;;;;;;;;;5096648;28;20219;-64
2020/12/12 05:28:20;;;;;;;28.08;19.90;;;;;;;;;;5097127;28;20388;-63
2020/12/12 05:30:47;;;;;;;31.45;21.35;;;;;;;;;;5096930;28;20300;-63
2020/12/12 05:33:15;;;;;;;31.45;21.85;;;;;;;;;;5097056;28;20250;-63
2020/12/12 05:35:43;;;;;;;28.75;18.77;;;;;;;;;;5096798;28;20200;-63
2020/12/12 05:38:10;;;;;;;34.65;22.00;;;;;;;;;;5097023;28;20204;-64
2020/12/12 05:40:37;;;;;;;32.60;21.15;;;;;;;;;;5096857;28;20273;-63
2020/12/12 05:43:04;;;;;;;30.52;22.05;;;;;;;;;;5096735;28;20204;-64
2020/12/12 05:45:31;;;;;;;31.27;20.35;;;;;;;;;;5096944;28;20247;-64
2020/12/12 05:47:58;;;;;;;31.40;21.92;;;;;;;;;;5096581;28;20200;-63
2020/12/12 05:50:26;;;;;;;28.63;20.55;;;;;;;;;;5096729;28;20220;-63
2020/12/12 05:52:53;;;;;;;27.73;21.02;;;;;;;;;;5096520;28;20250;-64
2020/12/12 05:55:22;;;;;;;28.27;20.20;;;;;;;;;;5097210;28;20295;-63
2020/12/12 05:57:50;;;;;;;32.13;20.58;;;;;;;;;;5098560;28;20236;-63
2020/12/12 06:00:16;;;;;;;33.28;23.55;;;;;;;;;;5098909;28;20224;-63
2020/12/12 06:02:47;;;;;;;31.60;19.85;;;;;;;;;;5099763;28;20201;-63
2020/12/12 06:05:20;;;;;;;30.88;20.13;;;;;;;;;;5099716;28;20188;-62
2020/12/12 06:07:53;;;;;;;30.52;19.98;;;;;;;;;;5097602;28;20226;-64
2020/12/12 06:10:24;;;;;;;28.95;20.13;;;;;;;;;;5098467;28;20278;-64
2020/12/12 06:12:55;;;;;;;29.95;20.08;;;;;;;;;;5097716;28;20184;-63
2020/12/12 06:15:32;;;;;;;28.50;19.98;;;;;;;;;;5100201;28;20701;-64
2020/12/12 06:18:05;;;;;;;31.50;20.83;;;;;;;;;;5104789;28;20180;-63
2020/12/12 06:20:32;;;;;;;33.05;21.60;;;;;;;;;;5103511;28;20224;-63
2020/12/12 06:23:01;;;;;;;27.05;19.70;;;;;;;;;;5098771;28;20249;-63
2020/12/12 06:25:28;;;;;;;30.40;20.90;;;;;;;;;;5095701;28;20668;-63
2020/12/12 06:27:55;;;;;;;30.63;19.95;;;;;;;;;;5097159;28;20616;-63
2020/12/12 06:30:25;;;;;;;28.88;21.02;;;;;;;;;;5094665;28;20266;-64
2020/12/12 06:32:51;;;;;;;29.20;20.45;;;;;;;;;;5095748;28;20204;-64
2020/12/12 06:35:18;;;;;;;28.77;19.67;;;;;;;;;;5095694;28;20203;-64
2020/12/12 06:37:45;;;;;;;26.40;20.48;;;;;;;;;;5095818;28;20277;-64
2020/12/12 06:40:13;;;;;;;29.90;20.77;;;;;;;;;;5096400;28;20704;-63
2020/12/12 06:42:41;;;;;;;30.08;20.10;;;;;;;;;;5095996;28;20200;-64
2020/12/12 06:45:23;;;;;;;28.08;20.20;;;;;;;;;;5095911;28;20249;-64
2020/12/12 06:47:50;;;;;;;27.15;20.63;;;;;;;;;;5094356;28;20222;-63
2020/12/12 06:50:20;;;;;;;28.33;20.52;;;;;;;;;;5095297;28;20298;-64
2020/12/12 06:52:47;;;;;;;24.27;18.15;;;;;;;;;;5095597;28;20557;-63
2020/12/12 06:55:16;;;;;;;27.70;18.88;;;;;;;;;;5095407;28;20611;-63
2020/12/12 06:57:43;;;;;;;29.70;19.73;;;;;;;;;;5095489;28;20200;-63
2020/12/12 07:00:19;;;;;;;31.15;20.58;;;;;;;;;;5095515;28;20274;-63
2020/12/12 07:02:58;;;;;;;29.17;19.75;;;;;;;;;;5095381;28;20253;-62
2020/12/12 07:05:26;;;;;;;28.38;19.73;;;;;;;;;;5095321;28;20261;-62
2020/12/12 07:07:53;;;;;;;26.90;19.42;;;;;;;;;;5095061;28;20184;-63
2020/12/12 07:10:21;;;;;;;33.97;21.02;;;;;;;;;;5095372;28;20269;-62
2020/12/12 07:12:48;;;;;;;28.83;19.50;;;;;;;;;;5095379;28;20204;-63
2020/12/12 07:15:15;;;;;;;28.00;20.42;;;;;;;;;;5096126;28;20207;-63
2020/12/12 07:17:42;;;;;;;29.77;18.77;;;;;;;;;;5100185;28;20193;-63
2020/12/12 07:20:09;;;;;;;25.95;17.80;;;;;;;;;;5096946;28;20224;-63
2020/12/12 07:22:36;;;;;;;26.58;17.70;;;;;;;;;;5097368;28;20204;-62
2020/12/12 07:25:07;;;;;;;27.20;19.13;;;;;;;;;;5098351;28;20203;-63
2020/12/12 07:27:35;;;;;;;25.05;18.88;;;;;;;;;;5094653;28;20291;-62
2020/12/12 07:30:02;;;;;;;25.13;18.75;;;;;;;;;;5098244;28;20273;-62
2020/12/12 07:32:29;;;;;;;24.92;18.75;;;;;;;;;;5099450;28;20204;-63
2020/12/12 07:35:01;;;;;;;29.52;18.20;;;;;;;;;;5100920;28;20204;-62
2020/12/12 07:37:28;;;;;;;24.77;19.17;;;;;;;;;;5104805;28;20203;-63
2020/12/12 07:39:55;;;;;;;26.52;18.90;;;;;;;;;;5097289;28;20220;-62
2020/12/12 07:42:23;;;;;;;25.90;18.30;;;;;;;;;;5097404;28;20349;-64
2020/12/12 07:44:56;;;;;;;26.20;18.60;;;;;;;;;;5096972;28;20295;-62
2020/12/12 07:47:23;;;;;;;27.95;19.02;;;;;;;;;;5095259;28;20218;-61
2020/12/12 07:49:49;;;;;;;25.65;16.45;;;;;;;;;;5095169;28;20216;-63
2020/12/12 07:52:16;;;;;;;25.20;18.23;;;;;;;;;;5095458;28;20273;-64
2020/12/12 07:54:46;;;;;;;25.58;17.75;;;;;;;;;;5097041;28;20204;-62
2020/12/12 07:57:14;;;;;;;27.50;19.30;;;;;;;;;;5095351;28;20184;-62
2020/12/12 07:59:41;;;;;;;24.85;17.60;;;;;;;;;;5095062;28;20211;-62
2020/12/12 08:02:10;;;;;;;25.25;17.00;;;;;;;;;;5094528;28;20196;-62
2020/12/12 08:04:37;;;;;;;24.75;17.88;;;;;;;;;;5095050;28;20232;-62
2020/12/12 08:07:11;;;;;;;23.63;18.13;;;;;;;;;;5095492;28;20246;-63
2020/12/12 08:09:37;;;;;;;24.50;17.83;;;;;;;;;;5097255;28;20313;-63
2020/12/12 08:12:04;;;;;;;25.88;17.02;;;;;;;;;;5095393;28;20250;-64
2020/12/12 08:14:41;;;;;;;24.90;17.48;;;;;;;;;;5094840;28;20208;-64
2020/12/12 08:17:11;;;;;;;26.67;18.20;;;;;;;;;;5094852;28;20181;-64
2020/12/12 08:19:45;;;;;;;28.52;19.13;;;;;;;;;;5095339;28;20258;-63
2020/12/12 08:22:17;;;;;;;28.42;17.85;;;;;;;;;;5095413;28;20183;-64
2020/12/12 08:24:44;;;;;;;25.30;18.42;;;;;;;;;;5094988;28;20181;-64
2020/12/12 08:27:12;;;;;;;24.40;17.23;;;;;;;;;;5095193;28;20252;-63
2020/12/12 08:29:43;;;;;;;22.77;17.00;;;;;;;;;;5095386;28;20691;-63
2020/12/12 08:32:25;;;;;;;25.23;18.80;;;;;;;;;;5096101;28;20204;-63
2020/12/12 08:34:52;;;;;;;23.40;17.65;;;;;;;;;;5097471;28;20195;-63
2020/12/12 08:37:19;;;;;;;20.55;16.42;;;;;;;;;;5095996;28;20200;-64
2020/12/12 08:39:46;;;;;;;24.75;18.63;;;;;;;;;;5095471;28;20221;-63
2020/12/12 08:42:23;;;;;;;22.25;16.58;;;;;;;;;;5095270;28;20211;-63
2020/12/12 08:44:49;;;;;;;24.80;17.88;;;;;;;;;;5095032;28;20675;-63
2020/12/12 08:47:16;;;;;;;24.05;16.70;;;;;;;;;;5095412;28;20704;-62
2020/12/12 08:49:43;;;;;;;23.58;17.55;;;;;;;;;;5097536;28;20208;-63
2020/12/12 08:52:11;;;;;;;25.00;17.40;;;;;;;;;;5096106;28;20208;-63
2020/12/12 08:54:37;;;;;;;25.98;18.80;;;;;;;;;;5099899;28;20205;-64
2020/12/12 08:57:10;;;;;;;24.48;17.98;;;;;;;;;;5098451;28;20249;-63
2020/12/12 08:59:37;;;;;;;21.90;16.45;;;;;;;;;;5098055;28;20602;-64
2020/12/12 09:02:17;;;;;;;24.77;17.55;;;;;;;;;;5098552;28;20204;-63
2020/12/12 09:04:44;;;;;;;23.95;17.02;;;;;;;;;;5097724;28;20247;-64
2020/12/12 09:07:23;;;;;;;21.08;16.05;;;;;;;;;;5097550;28;20231;-65
2020/12/12 09:09:50;;;;;;;25.52;17.88;;;;;;;;;;5097932;28;20687;-64
2020/12/12 09:12:18;;;;;;;21.33;16.23;;;;;;;;;;5097821;28;20236;-63
2020/12/12 09:14:47;;;;;;;21.70;17.45;;;;;;;;;;5097714;28;20200;-64
2020/12/12 09:17:15;;;;;;;23.63;17.65;;;;;;;;;;5097490;28;20196;-64
2020/12/12 09:19:42;;;;;;;22.30;15.85;;;;;;;;;;5096830;28;20729;-64
2020/12/12 09:22:09;;;;;;;21.48;16.95;;;;;;;;;;5097197;28;20200;-63
2020/12/12 09:24:37;;;;;;;21.38;15.88;;;;;;;;;;5096777;28;20208;-64
2020/12/12 09:27:04;;;;;;;21.05;16.55;;;;;;;;;;5096786;28;20627;-64
2020/12/12 09:29:31;;;;;;;21.83;16.13;;;;;;;;;;5103674;28;20250;-64
2020/12/12 09:31:58;;;;;;;22.67;17.30;;;;;;;;;;5104038;28;20197;-64
2020/12/12 09:34:25;;;;;;;20.85;15.98;;;;;;;;;;5102165;28;20200;-64
2020/12/12 09:36:52;;;;;;;21.70;15.63;;;;;;;;;;5097612;28;20547;-65
2020/12/12 09:39:18;;;;;;;23.33;16.42;;;;;;;;;;5098301;28;20212;-65
2020/12/12 09:41:46;;;;;;;25.15;16.55;;;;;;;;;;5096648;28;20708;-64
2020/12/12 09:44:13;;;;;;;21.65;16.85;;;;;;;;;;5099635;28;20201;-63
2020/12/12 09:46:40;;;;;;;24.20;17.55;;;;;;;;;;5103411;28;20245;-63
2020/12/12 09:49:07;;;;;;;23.00;17.65;;;;;;;;;;5103572;28;20551;-63
2020/12/12 09:51:33;;;;;;;23.23;17.25;;;;;;;;;;5102524;28;20216;-64
2020/12/12 09:54:00;;;;;;;23.55;17.67;;;;;;;;;;5101585;28;20245;-64
2020/12/12 09:56:27;;;;;;;22.33;17.20;;;;;;;;;;5099118;28;20196;-63
2020/12/12 09:58:55;;;;;;;22.00;16.73;;;;;;;;;;5098203;28;20204;-64
2020/12/12 10:01:22;;;;;;;20.02;16.35;;;;;;;;;;5097322;28;20220;-64
2020/12/12 10:03:48;;;;;;;20.40;16.58;;;;;;;;;;5096797;28;20204;-65
2020/12/12 10:06:15;;;;;;;21.92;16.48;;;;;;;;;;5096705;28;20224;-64
2020/12/12 10:08:42;;;;;;;21.35;16.30;;;;;;;;;;5096742;28;20242;-64
2020/12/12 10:11:09;;;;;;;20.98;17.33;;;;;;;;;;5095624;28;20220;-64
2020/12/12 10:13:35;;;;;;;24.13;17.10;;;;;;;;;;5095993;28;20665;-64
2020/12/12 10:16:04;;;;;;;22.52;15.65;;;;;;;;;;5096210;28;20250;-65
2020/12/12 10:18:30;;;;;;;22.50;16.23;;;;;;;;;;5096588;28;20213;-65
2020/12/12 10:20:57;;;;;;;20.10;16.20;;;;;;;;;;5096312;28;20228;-64
2020/12/12 10:23:24;;;;;;;20.73;16.13;;;;;;;;;;5096775;28;20245;-64
2020/12/12 10:25:51;;;;;;;22.88;18.52;;;;;;;;;;5096011;28;20253;-63
2020/12/12 10:28:18;;;;;;;23.80;17.30;;;;;;;;;;5096089;28;20200;-64
2020/12/12 10:30:45;;;;;;;19.85;16.08;;;;;;;;;;5095833;28;20248;-64
2020/12/12 10:33:12;;;;;;;22.25;17.17;;;;;;;;;;5095873;28;20201;-64
2020/12/12 10:35:39;;;;;;;24.27;17.40;;;;;;;;;;5095334;28;20207;-64
2020/12/12 10:38:06;;;;;;;20.52;15.48;;;;;;;;;;5095904;28;20197;-63
2020/12/12 10:40:35;;;;;;;21.15;16.10;;;;;;;;;;5100358;28;20228;-65
2020/12/12 10:43:04;;;;;;;20.35;16.30;;;;;;;;;;5098678;28;20235;-64
2020/12/12 10:45:31;;;;;;;22.17;16.50;;;;;;;;;;5097667;28;20732;-63
2020/12/12 10:47:58;;;;;;;19.10;15.40;;;;;;;;;;5097281;28;20226;-64
2020/12/12 10:50:26;;;;;;;21.95;16.67;;;;;;;;;;5098224;28;20224;-63
2020/12/12 10:52:53;;;;;;;21.27;15.77;;;;;;;;;;5098163;28;20253;-64
2020/12/12 10:55:20;;;;;;;20.52;15.48;;;;;;;;;;5096759;28;20207;-63
2020/12/12 10:57:47;;;;;;;19.75;15.40;;;;;;;;;;5096868;28;20193;-64
2020/12/12 11:00:14;;;;;;;20.35;15.88;;;;;;;;;;5099678;28;20707;-64
2020/12/12 11:02:40;;;;;;;20.35;16.17;;;;;;;;;;5096315;28;20336;-63
2020/12/12 11:05:08;;;;;;;20.05;15.73;;;;;;;;;;5096260;28;20200;-63
2020/12/12 11:07:36;;;;;;;20.45;15.60;;;;;;;;;;5097976;28;20228;-64
2020/12/12 11:10:02;;;;;;;20.13;15.38;;;;;;;;;;5097035;28;20224;-63
2020/12/12 11:12:29;;;;;;;21.10;15.63;;;;;;;;;;5097892;28;20615;-63
2020/12/12 11:14:56;;;;;;;18.60;15.00;;;;;;;;;;5098635;28;20201;-63
2020/12/12 11:17:23;;;;;;;20.90;16.42;;;;;;;;;;5098671;28;20192;-64
2020/12/12 11:19:49;;;;;;;20.42;15.70;;;;;;;;;;5096561;28;20220;-64
2020/12/12 11:22:16;;;;;;;20.48;15.23;;;;;;;;;;5098257;28;20256;-66
2020/12/12 11:24:47;;;;;;;19.75;14.73;;;;;;;;;;5097482;28;20265;-64
2020/12/12 11:27:13;;;;;;;21.00;16.30;;;;;;;;;;5097992;28;20200;-64
2020/12/12 11:29:40;;;;;;;22.13;16.45;;;;;;;;;;5097419;28;20745;-64
2020/12/12 11:32:09;;;;;;;21.98;16.60;;;;;;;;;;5097021;28;20204;-64
2020/12/12 11:34:38;;;;;;;20.92;16.10;;;;;;;;;;5095803;28;20206;-62
2020/12/12 11:37:29;;;;;;;19.00;15.65;;;;;;;;;;5096637;28;20196;-63
2020/12/12 11:40:05;;;;;;;19.55;15.52;;;;;;;;;;5096852;28;20230;-64
2020/12/12 11:48:03;;;;;;;18.95;15.27;;;;;;;;;;5098865;28;20220;-64
2020/12/12 11:50:33;;;;;;;19.70;14.70;;;;;;;;;;5099629;28;20785;-64
2020/12/12 11:53:00;;;;;;;20.42;15.15;;;;;;;;;;5102276;28;20207;-64
2020/12/12 11:55:28;;;;;;;18.90;15.55;;;;;;;;;;5101145;28;20199;-64
2020/12/12 11:57:54;;;;;;;16.85;14.13;;;;;;;;;;5101793;28;20656;-64
2020/12/12 12:00:23;;;;;;;20.15;14.32;;;;;;;;;;5102837;28;20224;-64
2020/12/12 12:02:50;;;;;;;19.90;13.57;;;;;;;;;;5100637;28;20204;-63
2020/12/12 12:05:16;;;;;;;20.15;15.23;;;;;;;;;;5100362;28;20671;-65
2020/12/12 12:07:45;;;;;;;20.27;14.85;;;;;;;;;;5104796;28;20237;-64
2020/12/12 12:10:16;;;;;;;14.68;13.00;;;;;;;;;;5104263;28;20247;-64
2020/12/12 12:12:44;;;;;;;18.13;13.63;;;;;;;;;;5104961;28;20233;-64
2020/12/12 12:15:11;;;;;;;16.38;12.60;;;;;;;;;;5104162;28;20207;-64
2020/12/12 12:17:38;;;;;;;17.48;13.15;;;;;;;;;;5100413;28;20261;-65
2020/12/12 12:20:05;;;;;;;19.10;14.23;;;;;;;;;;5100308;28;20246;-64
2020/12/12 12:22:32;;;;;;;18.25;14.90;;;;;;;;;;5099052;28;20283;-64
2020/12/12 12:24:59;;;;;;;17.55;12.95;;;;;;;;;;5100586;28;20202;-65
2020/12/12 12:27:26;;;;;;;15.98;13.25;;;;;;;;;;5102165;28;20216;-65
2020/12/12 12:29:53;;;;;;;19.25;14.10;;;;;;;;;;5103925;28;20224;-65
2020/12/12 12:32:20;;;;;;;17.50;14.07;;;;;;;;;;5100002;28;20216;-64
2020/12/12 12:34:47;;;;;;;15.15;12.65;;;;;;;;;;5101047;28;20200;-64
2020/12/12 12:37:14;;;;;;;16.95;13.27;;;;;;;;;;5101517;28;20208;-66
2020/12/12 12:39:40;;;;;;;16.50;13.40;;;;;;;;;;5100382;28;20208;-65
2020/12/12 12:42:07;;;;;;;13.77;11.60;;;;;;;;;;5103639;28;20201;-65
2020/12/12 12:44:34;;;;;;;16.10;13.35;;;;;;;;;;5112583;28;20200;-64
2020/12/12 12:47:02;;;;;;;18.15;13.85;;;;;;;;;;5111097;28;20242;-64
2020/12/12 12:49:28;;;;;;;13.13;11.13;;;;;;;;;;5110819;28;20204;-66
2020/12/12 12:51:55;;;;;;;14.45;12.25;;;;;;;;;;5110594;28;20208;-64
2020/12/12 12:54:22;;;;;;;18.85;12.90;;;;;;;;;;5111551;28;20212;-64
2020/12/12 12:56:49;;;;;;;16.73;12.82;;;;;;;;;;5109660;28;20200;-64
2020/12/12 12:59:16;;;;;;;15.55;11.90;;;;;;;;;;5099023;28;20208;-64
2020/12/12 13:01:42;;;;;;;15.73;12.07;;;;;;;;;;5100657;28;20220;-65
2020/12/12 13:04:10;;;;;;;20.48;13.88;;;;;;;;;;5101838;28;20212;-63
2020/12/12 13:06:37;;;;;;;16.33;12.65;;;;;;;;;;5099007;28;20231;-64
2020/12/12 13:09:04;;;;;;;12.98;11.57;;;;;;;;;;5099095;28;20766;-64
2020/12/12 13:11:31;;;;;;;16.83;13.13;;;;;;;;;;5098401;28;20694;-64
2020/12/12 13:13:58;;;;;;;15.85;12.68;;;;;;;;;;5098065;28;20204;-66
2020/12/12 13:16:26;;;;;;;15.98;12.02;;;;;;;;;;5098701;28;20201;-64
2020/12/12 13:18:58;;;;;;;18.10;14.30;;;;;;;;;;5099014;28;20283;-64
2020/12/12 13:21:34;;;;;;;20.17;16.25;;;;;;;;;;5098704;28;20315;-64
2020/12/12 13:24:00;;;;;;;19.20;13.63;;;;;;;;;;5097538;28;20226;-64
2020/12/12 13:26:27;;;;;;;17.00;13.52;;;;;;;;;;5097627;28;20683;-67
2020/12/12 13:31:39;;;;;;;25.35;19.55;;;;;;;;;;5097857;28;20216;-65
2020/12/12 13:34:06;;;;;;;16.35;12.40;;;;;;;;;;5096965;28;20250;-65
2020/12/12 13:36:34;;;;;;;18.77;13.13;;;;;;;;;;5096839;28;20196;-63
2020/12/12 13:39:00;;;;;;;20.98;13.95;;;;;;;;;;5097817;28;20235;-63
2020/12/12 13:41:28;;;;;;;16.80;13.40;;;;;;;;;;5099298;28;20220;-62
2020/12/12 13:43:56;;;;;;;16.23;12.48;;;;;;;;;;5097557;28;20201;-64
2020/12/12 13:46:23;;;;;;;19.55;13.10;;;;;;;;;;5097907;28;20274;-64
2020/12/12 13:48:50;;;;;;;16.00;13.18;;;;;;;;;;5099107;28;20208;-63
2020/12/12 13:51:16;;;;;;;16.17;13.32;;;;;;;;;;5099774;28;20216;-61
2020/12/12 13:53:44;;;;;;;16.27;13.57;;;;;;;;;;5099044;28;20208;-63
2020/12/12 13:56:11;;;;;;;19.95;15.98;;;;;;;;;;5098245;28;20672;-63
2020/12/12 13:58:38;;;;;;;18.70;14.18;;;;;;;;;;5098425;28;20196;-62
2020/12/12 14:01:05;;;;;;;16.67;13.98;;;;;;;;;;5098685;28;20228;-63
2020/12/12 14:03:32;;;;;;;20.02;14.77;;;;;;;;;;5097856;28;20203;-63
2020/12/12 14:06:02;;;;;;;18.55;14.32;;;;;;;;;;5099111;28;20212;-63
2020/12/12 14:08:34;;;;;;;16.10;12.95;;;;;;;;;;5098511;28;20224;-62
2020/12/12 14:25:07;;;;;;;16.90;13.85;;;;;;;;;;5092997;28;20196;-64
2020/12/12 14:30:19;;;;;;;18.58;14.23;;;;;;;;;;5096741;28;20242;-62
2020/12/12 14:32:47;;;;;;;21.20;15.25;;;;;;;;;;5096954;28;20257;-64
2020/12/12 14:35:14;;;;;;;24.55;16.23;;;;;;;;;;5099507;28;20547;-62
2020/12/12 14:37:41;;;;;;;21.45;16.25;;;;;;;;;;5099189;28;20204;-64
2020/12/12 14:40:08;;;;;;;24.33;16.40;;;;;;;;;;5096798;28;20220;-63
2020/12/12 14:42:35;;;;;;;20.85;16.23;;;;;;;;;;5096153;28;20277;-63
2020/12/12 14:45:02;;;;;;;20.52;15.57;;;;;;;;;;5096240;28;20614;-63
2020/12/12 14:47:29;;;;;;;24.42;16.10;;;;;;;;;;5096094;28;20224;-63